createdAt,value
2022-12-24T00:00:00.475Z,6.40
2022-12-24T00:00:37.862Z,6.40
2022-12-24T00:01:13.306Z,6.40
2022-12-24T00:01:48.924Z,6.40
2022-12-24T00:02:23.396Z,6.40
2022-12-24T00:03:00.111Z,6.40
2022-12-24T00:03:35.323Z,6.40
2022-12-24T00:04:10.726Z,6.50
2022-12-24T00:04:45.846Z,6.40
2022-12-24T00:05:19.595Z,6.40
2022-12-24T00:05:55.011Z,6.40
2022-12-24T00:06:29.826Z,6.50
2022-12-24T00:07:04.744Z,6.40
2022-12-24T00:07:40.363Z,6.40
2022-12-24T00:08:16.253Z,6.50
2022-12-24T00:08:50.210Z,6.50
2022-12-24T00:09:26.911Z,6.40
2022-12-24T00:10:01.914Z,6.50
2022-12-24T00:10:36.827Z,6.50
2022-12-24T00:11:12.795Z,6.50
2022-12-24T00:11:46.896Z,6.50
2022-12-24T00:12:22.558Z,6.50
2022-12-24T00:12:58.086Z,6.50
2022-12-24T00:13:33.533Z,6.50
2022-12-24T00:14:08.966Z,6.40
2022-12-24T00:14:43.929Z,6.40
2022-12-24T00:15:20.818Z,6.40
2022-12-24T00:15:55.809Z,6.40
2022-12-24T00:16:30.675Z,6.40
2022-12-24T00:17:05.755Z,6.40
2022-12-24T00:17:40.474Z,6.40
2022-12-24T00:18:15.967Z,6.40
2022-12-24T00:18:50.097Z,6.40
2022-12-24T00:19:25.986Z,6.40
2022-12-24T00:20:01.125Z,6.50
2022-12-24T00:20:35.807Z,6.40
2022-12-24T00:21:10.560Z,6.50
2022-12-24T00:21:46.656Z,6.40
2022-12-24T00:22:21.024Z,6.40
2022-12-24T00:22:56.970Z,6.40
2022-12-24T00:23:33.131Z,6.40
2022-12-24T00:24:09.549Z,6.40
2022-12-24T00:24:42.984Z,6.40
2022-12-24T00:25:18.828Z,6.40
2022-12-24T00:25:53.658Z,6.40
2022-12-24T00:26:28.716Z,6.40
2022-12-24T00:27:08.062Z,6.40
2022-12-24T00:27:41.448Z,6.40
2022-12-24T00:28:16.650Z,6.40
2022-12-24T00:28:54.302Z,6.40
2022-12-24T00:29:29.348Z,6.40
2022-12-24T00:30:02.665Z,6.40
2022-12-24T00:30:39.771Z,6.40
2022-12-24T00:31:16.990Z,6.40
2022-12-24T00:31:51.945Z,6.40
2022-12-24T00:32:27.673Z,6.40
2022-12-24T00:33:01.998Z,6.40
2022-12-24T00:33:37.542Z,6.40
2022-12-24T00:34:12.055Z,6.40
2022-12-24T00:34:47.594Z,6.40
2022-12-24T00:35:21.476Z,6.40
2022-12-24T00:35:56.983Z,6.40
2022-12-24T00:36:31.465Z,6.50
2022-12-24T00:37:06.483Z,6.40
2022-12-24T00:37:43.297Z,6.40
2022-12-24T00:38:18.295Z,6.40
2022-12-24T00:38:52.307Z,6.40
2022-12-24T00:39:26.826Z,6.50
2022-12-24T00:40:03.010Z,6.40
2022-12-24T00:40:38.308Z,6.50
2022-12-24T00:41:25.556Z,6.50
2022-12-24T00:42:01.895Z,6.50
2022-12-24T00:42:36.923Z,6.50
2022-12-24T00:43:11.004Z,6.50
2022-12-24T00:43:46.452Z,6.50
2022-12-24T00:44:22.713Z,6.50
2022-12-24T00:44:57.735Z,6.50
2022-12-24T00:45:32.730Z,6.50
2022-12-24T00:46:06.676Z,6.50
2022-12-24T00:46:42.181Z,6.50
2022-12-24T00:47:17.606Z,6.50
2022-12-24T00:47:52.016Z,6.50
2022-12-24T00:48:27.898Z,6.50
2022-12-24T00:49:02.757Z,6.50
2022-12-24T00:49:37.717Z,6.50
2022-12-24T00:50:13.704Z,6.50
2022-12-24T00:50:48.224Z,6.40
2022-12-24T00:51:22.268Z,6.50
2022-12-24T00:51:58.052Z,6.40
2022-12-24T00:52:32.225Z,6.50
2022-12-24T00:53:06.841Z,6.50
2022-12-24T00:53:41.430Z,6.40
2022-12-24T00:54:16.243Z,6.40
2022-12-24T00:54:51.954Z,6.40
2022-12-24T00:55:27.046Z,6.40
2022-12-24T00:56:01.698Z,6.40
2022-12-24T00:56:37.300Z,6.40
2022-12-24T00:57:11.255Z,6.40
2022-12-24T00:57:45.473Z,6.40
2022-12-24T00:58:21.501Z,6.40
2022-12-24T00:58:55.613Z,6.30
2022-12-24T00:59:31.118Z,6.40
2022-12-24T01:00:08.377Z,6.30
2022-12-24T01:00:41.829Z,6.30
2022-12-24T01:01:16.484Z,6.40
2022-12-24T01:01:52.357Z,6.30
2022-12-24T01:02:28.607Z,6.40
2022-12-24T01:03:02.998Z,6.40
2022-12-24T01:03:38.116Z,6.30
2022-12-24T01:04:31.392Z,6.30
2022-12-24T01:05:13.362Z,6.30
2022-12-24T01:05:49.092Z,6.30
2022-12-24T01:06:23.687Z,6.30
2022-12-24T01:06:58.811Z,6.30
2022-12-24T01:07:33.242Z,6.20
2022-12-24T01:08:07.481Z,6.20
2022-12-24T01:08:43.040Z,6.20
2022-12-24T01:09:17.263Z,6.20
2022-12-24T01:09:52.159Z,6.20
2022-12-24T01:10:25.988Z,6.20
2022-12-24T01:11:01.505Z,6.20
2022-12-24T01:11:35.980Z,6.10
2022-12-24T01:12:10.438Z,6.10
2022-12-24T01:12:47.377Z,6.10
2022-12-24T01:13:20.860Z,6.20
2022-12-24T01:13:58.174Z,6.10
2022-12-24T01:14:34.026Z,6.10
2022-12-24T01:15:10.739Z,6.10
2022-12-24T01:15:45.253Z,6.10
2022-12-24T01:16:21.247Z,6.10
2022-12-24T01:16:56.534Z,6.20
2022-12-24T01:17:32.711Z,6.10
2022-12-24T01:18:08.168Z,6.10
2022-12-24T01:18:43.213Z,6.10
2022-12-24T01:19:16.732Z,6.10
2022-12-24T01:19:52.082Z,6.10
2022-12-24T01:20:32.304Z,6.10
2022-12-24T01:21:06.710Z,6.10
2022-12-24T01:21:41.214Z,6.10
2022-12-24T01:22:17.989Z,6.10
2022-12-24T01:22:53.342Z,6.10
2022-12-24T01:23:29.121Z,6.10
2022-12-24T01:24:03.858Z,6.10
2022-12-24T01:24:37.709Z,6.00
2022-12-24T01:25:12.535Z,6.10
2022-12-24T01:25:48.833Z,6.10
2022-12-24T01:26:23.801Z,6.10
2022-12-24T01:26:57.941Z,6.10
2022-12-24T01:27:34.775Z,6.10
2022-12-24T01:28:08.811Z,6.10
2022-12-24T01:28:43.655Z,6.10
2022-12-24T01:29:18.225Z,6.10
2022-12-24T01:29:55.838Z,6.10
2022-12-24T01:30:30.911Z,6.10
2022-12-24T01:31:13.212Z,6.10
2022-12-24T01:31:48.872Z,6.10
2022-12-24T01:32:23.674Z,6.10
2022-12-24T01:32:57.567Z,6.10
2022-12-24T01:33:32.664Z,6.10
2022-12-24T01:34:07.058Z,6.20
2022-12-24T01:34:41.637Z,6.20
2022-12-24T01:35:18.475Z,6.20
2022-12-24T01:35:52.852Z,6.20
2022-12-24T01:36:27.570Z,6.20
2022-12-24T01:37:02.836Z,6.20
2022-12-24T01:37:37.328Z,6.20
2022-12-24T01:38:12.677Z,6.20
2022-12-24T01:38:47.803Z,6.20
2022-12-24T01:39:22.846Z,6.30
2022-12-24T01:40:17.145Z,6.30
2022-12-24T01:41:10.222Z,6.20
2022-12-24T01:42:02.437Z,6.30
2022-12-24T01:42:57.343Z,6.30
2022-12-24T01:43:34.646Z,6.30
2022-12-24T01:44:27.227Z,6.30
2022-12-24T01:45:42.515Z,6.30
2022-12-24T01:46:17.561Z,6.30
2022-12-24T01:46:54.643Z,6.20
2022-12-24T01:47:32.851Z,6.20
2022-12-24T01:48:37.764Z,6.20
2022-12-24T01:49:14.543Z,6.30
2022-12-24T01:49:54.501Z,6.30
2022-12-24T01:50:28.264Z,6.20
2022-12-24T01:51:04.612Z,6.30
2022-12-24T01:51:44.077Z,6.30
2022-12-24T01:52:23.274Z,6.30
2022-12-24T01:52:58.521Z,6.30
2022-12-24T01:53:36.740Z,6.30
2022-12-24T01:54:13.996Z,6.30
2022-12-24T01:54:51.504Z,6.30
2022-12-24T01:55:28.794Z,6.30
2022-12-24T01:56:04.901Z,6.30
2022-12-24T01:56:47.500Z,6.30
2022-12-24T01:57:27.361Z,6.30
2022-12-24T01:58:02.561Z,6.30
2022-12-24T01:58:38.935Z,6.30
2022-12-24T01:59:16.725Z,6.30
2022-12-24T01:59:56.186Z,6.30
2022-12-24T02:00:29.919Z,6.30
2022-12-24T02:01:07.546Z,6.30
2022-12-24T02:01:41.905Z,6.30
2022-12-24T02:02:17.504Z,6.30
2022-12-24T02:02:55.130Z,6.30
2022-12-24T02:03:31.828Z,6.30
2022-12-24T02:04:12.272Z,6.30
2022-12-24T02:04:51.364Z,6.20
2022-12-24T02:05:32.247Z,6.20
2022-12-24T02:06:09.276Z,6.20
2022-12-24T02:06:44.027Z,6.20
2022-12-24T02:07:20.455Z,6.20
2022-12-24T02:07:54.276Z,6.20
2022-12-24T02:08:40.632Z,6.20
2022-12-24T02:09:16.061Z,6.20
2022-12-24T02:09:54.193Z,6.10
2022-12-24T02:10:28.252Z,6.10
2022-12-24T02:11:03.242Z,6.10
2022-12-24T02:11:41.397Z,6.10
2022-12-24T02:12:15.807Z,6.10
2022-12-24T02:12:53.089Z,6.10
2022-12-24T02:13:27.553Z,6.10
2022-12-24T02:14:04.761Z,6.10
2022-12-24T02:14:38.910Z,6.10
2022-12-24T02:15:19.112Z,6.10
2022-12-24T02:16:13.546Z,6.10
2022-12-24T02:16:55.388Z,6.10
2022-12-24T02:17:35.251Z,6.10
2022-12-24T02:18:18.708Z,6.10
2022-12-24T02:19:01.529Z,6.10
2022-12-24T02:20:14.165Z,6.00
2022-12-24T02:21:33.709Z,6.10
2022-12-24T02:22:16.067Z,6.10
2022-12-24T02:23:23.934Z,6.10
2022-12-24T02:24:43.200Z,6.10
2022-12-24T02:25:34.508Z,6.10
2022-12-24T02:26:27.612Z,6.10
2022-12-24T02:27:14.802Z,6.10
2022-12-24T02:27:57.064Z,6.10
2022-12-24T02:28:47.595Z,6.10
2022-12-24T02:29:38.936Z,6.10
2022-12-24T02:30:21.238Z,6.10
2022-12-24T02:31:01.325Z,6.10
2022-12-24T02:31:43.114Z,6.20
2022-12-24T02:32:23.252Z,6.20
2022-12-24T02:33:17.566Z,6.20
2022-12-24T02:34:00.044Z,6.20
2022-12-24T02:34:39.640Z,6.20
2022-12-24T02:35:20.658Z,6.20
2022-12-24T02:35:59.660Z,6.20
2022-12-24T02:36:37.460Z,6.20
2022-12-24T02:37:18.726Z,6.10
2022-12-24T02:37:58.279Z,6.20
2022-12-24T02:38:35.828Z,6.10
2022-12-24T02:39:15.321Z,6.10
2022-12-24T02:39:53.697Z,6.10
2022-12-24T02:40:32.641Z,6.10
2022-12-24T02:41:12.872Z,6.10
2022-12-24T02:42:08.752Z,6.10
2022-12-24T02:42:46.683Z,6.10
2022-12-24T02:43:25.333Z,6.10
2022-12-24T02:44:00.285Z,6.10
2022-12-24T02:44:40.174Z,6.10
2022-12-24T02:45:17.454Z,6.10
2022-12-24T02:45:59.223Z,6.10
2022-12-24T02:46:34.713Z,6.10
2022-12-24T02:47:12.242Z,6.10
2022-12-24T02:47:47.337Z,6.10
2022-12-24T02:48:23.247Z,6.10
2022-12-24T02:48:59.873Z,6.10
2022-12-24T02:49:37.037Z,6.10
2022-12-24T02:50:13.778Z,6.20
2022-12-24T02:51:05.931Z,6.10
2022-12-24T02:51:40.539Z,6.20
2022-12-24T02:52:33.147Z,6.20
2022-12-24T02:53:11.669Z,6.20
2022-12-24T02:53:46.604Z,6.20
2022-12-24T02:54:20.506Z,6.20
2022-12-24T02:54:56.084Z,6.20
2022-12-24T02:55:39.813Z,6.20
2022-12-24T02:56:32.974Z,6.20
2022-12-24T02:57:16.748Z,6.20
2022-12-24T02:58:11.561Z,6.20
2022-12-24T02:58:58.603Z,6.20
2022-12-24T02:59:58.073Z,6.30
2022-12-24T03:00:42.039Z,6.30
2022-12-24T03:01:32.149Z,6.30
2022-12-24T03:02:20.708Z,6.30
2022-12-24T03:03:14.255Z,6.30
2022-12-24T03:04:01.494Z,6.30
2022-12-24T03:04:48.117Z,6.30
2022-12-24T03:05:31.864Z,6.30
2022-12-24T03:06:17.492Z,6.30
2022-12-24T03:06:58.725Z,6.40
2022-12-24T03:07:39.796Z,6.40
2022-12-24T03:08:22.548Z,6.40
2022-12-24T03:09:03.308Z,6.40
2022-12-24T03:09:45.420Z,6.30
2022-12-24T03:10:24.799Z,6.30
2022-12-24T03:11:07.423Z,6.30
2022-12-24T03:11:47.426Z,6.30
2022-12-24T03:12:28.439Z,6.40
2022-12-24T03:13:04.729Z,6.40
2022-12-24T03:13:39.022Z,6.30
2022-12-24T03:14:13.972Z,6.30
2022-12-24T03:14:52.348Z,6.40
2022-12-24T03:15:29.505Z,6.40
2022-12-24T03:16:08.005Z,6.30
2022-12-24T03:16:45.398Z,6.40
2022-12-24T03:17:20.726Z,6.30
2022-12-24T03:18:00.483Z,6.30
2022-12-24T03:18:34.792Z,6.40
2022-12-24T03:19:08.164Z,6.40
2022-12-24T03:19:43.643Z,6.40
2022-12-24T03:20:24.476Z,6.40
2022-12-24T03:21:03.622Z,6.40
2022-12-24T03:21:43.251Z,6.40
2022-12-24T03:22:21.624Z,6.40
2022-12-24T03:22:57.548Z,6.40
2022-12-24T03:23:32.547Z,6.40
2022-12-24T03:24:07.595Z,6.40
2022-12-24T03:24:44.398Z,6.40
2022-12-24T03:25:21.953Z,6.40
2022-12-24T03:25:56.408Z,6.40
2022-12-24T03:26:35.449Z,6.40
2022-12-24T03:27:11.637Z,6.40
2022-12-24T03:27:46.893Z,6.40
2022-12-24T03:28:28.183Z,6.40
2022-12-24T03:29:05.843Z,6.50
2022-12-24T03:29:41.118Z,6.50
2022-12-24T03:30:19.283Z,6.50
2022-12-24T03:30:53.956Z,6.50
2022-12-24T03:31:40.165Z,6.50
2022-12-24T03:32:24.728Z,6.50
2022-12-24T03:32:59.361Z,6.50
2022-12-24T03:33:33.346Z,6.50
2022-12-24T03:34:10.323Z,6.50
2022-12-24T03:34:43.987Z,6.50
2022-12-24T03:35:18.195Z,6.50
2022-12-24T03:35:53.485Z,6.50
2022-12-24T03:36:31.405Z,6.50
2022-12-24T03:37:06.490Z,6.50
2022-12-24T03:37:41.554Z,6.50
2022-12-24T03:38:16.030Z,6.50
2022-12-24T03:38:50.945Z,6.50
2022-12-24T03:39:26.628Z,6.50
2022-12-24T03:40:00.050Z,6.50
2022-12-24T03:40:35.270Z,6.50
2022-12-24T03:41:11.526Z,6.50
2022-12-24T03:41:46.189Z,6.50
2022-12-24T03:42:20.898Z,6.50
2022-12-24T03:42:55.778Z,6.50
2022-12-24T03:43:29.628Z,6.50
2022-12-24T03:44:04.796Z,6.40
2022-12-24T03:44:41.294Z,6.40
2022-12-24T03:45:16.796Z,6.40
2022-12-24T03:45:51.111Z,6.40
2022-12-24T03:46:26.447Z,6.40
2022-12-24T03:47:00.765Z,6.40
2022-12-24T03:47:37.285Z,6.50
2022-12-24T03:48:12.720Z,6.50
2022-12-24T03:48:46.670Z,6.40
2022-12-24T03:49:21.851Z,6.50
2022-12-24T03:49:57.578Z,6.50
2022-12-24T03:50:32.542Z,6.50
2022-12-24T03:51:18.598Z,6.50
2022-12-24T03:51:54.097Z,6.40
2022-12-24T03:52:29.171Z,6.50
2022-12-24T03:53:02.939Z,6.50
2022-12-24T03:53:39.722Z,6.40
2022-12-24T03:54:15.031Z,6.40
2022-12-24T03:54:49.010Z,6.40
2022-12-24T03:55:24.008Z,6.40
2022-12-24T03:55:57.624Z,6.40
2022-12-24T03:56:33.346Z,6.40
2022-12-24T03:57:09.019Z,6.40
2022-12-24T03:57:44.119Z,6.40
2022-12-24T03:58:18.654Z,6.50
2022-12-24T03:58:54.280Z,6.40
2022-12-24T03:59:28.848Z,6.40
2022-12-24T04:00:03.063Z,6.40
2022-12-24T04:00:47.744Z,6.40
2022-12-24T04:01:21.729Z,6.40
2022-12-24T04:01:55.933Z,6.40
2022-12-24T04:02:31.345Z,6.40
2022-12-24T04:03:09.765Z,6.40
2022-12-24T04:03:45.172Z,6.40
2022-12-24T04:04:20.683Z,6.40
2022-12-24T04:04:54.913Z,6.40
2022-12-24T04:05:30.675Z,6.40
2022-12-24T04:06:06.853Z,6.40
2022-12-24T04:06:42.608Z,6.40
2022-12-24T04:07:16.797Z,6.40
2022-12-24T04:07:51.901Z,6.40
2022-12-24T04:08:27.456Z,6.40
2022-12-24T04:09:05.571Z,6.40
2022-12-24T04:09:41.219Z,6.40
2022-12-24T04:10:17.466Z,6.40
2022-12-24T04:10:52.461Z,6.40
2022-12-24T04:11:26.967Z,6.40
2022-12-24T04:12:02.013Z,6.40
2022-12-24T04:12:36.958Z,6.40
2022-12-24T04:13:11.830Z,6.40
2022-12-24T04:13:47.474Z,6.40
2022-12-24T04:14:21.398Z,6.40
2022-12-24T04:14:55.833Z,6.40
2022-12-24T04:15:30.838Z,6.40
2022-12-24T04:16:06.438Z,6.40
2022-12-24T04:16:41.544Z,6.50
2022-12-24T04:17:17.609Z,6.50
2022-12-24T04:17:52.494Z,6.50
2022-12-24T04:18:28.871Z,6.50
2022-12-24T04:19:03.840Z,6.50
2022-12-24T04:19:38.869Z,6.50
2022-12-24T04:20:13.795Z,6.50
2022-12-24T04:20:48.742Z,6.50
2022-12-24T04:21:23.218Z,6.50
2022-12-24T04:21:57.023Z,6.50
2022-12-24T04:22:31.032Z,6.50
2022-12-24T04:23:05.594Z,6.50
2022-12-24T04:23:42.369Z,6.50
2022-12-24T04:24:16.578Z,6.50
2022-12-24T04:24:51.303Z,6.50
2022-12-24T04:25:26.893Z,6.50
2022-12-24T04:26:01.472Z,6.50
2022-12-24T04:26:35.557Z,6.50
2022-12-24T04:27:09.543Z,6.50
2022-12-24T04:27:47.881Z,6.50
2022-12-24T04:28:24.600Z,6.50
2022-12-24T04:28:59.838Z,6.50
2022-12-24T04:29:34.771Z,6.50
2022-12-24T04:30:10.298Z,6.50
2022-12-24T04:30:45.868Z,6.50
2022-12-24T04:31:20.299Z,6.50
2022-12-24T04:31:55.427Z,6.50
2022-12-24T04:32:30.765Z,6.50
2022-12-24T04:33:05.471Z,6.50
2022-12-24T04:33:41.207Z,6.40
2022-12-24T04:34:19.655Z,6.40
2022-12-24T04:34:53.226Z,6.40
2022-12-24T04:35:27.575Z,6.40
2022-12-24T04:36:02.843Z,6.40
2022-12-24T04:36:37.316Z,6.40
2022-12-24T04:37:12.938Z,6.30
2022-12-24T04:37:49.313Z,6.30
2022-12-24T04:38:24.056Z,6.30
2022-12-24T04:38:57.900Z,6.40
2022-12-24T04:39:33.860Z,6.30
2022-12-24T04:40:11.660Z,6.30
2022-12-24T04:40:45.846Z,6.30
2022-12-24T04:41:24.750Z,6.30
2022-12-24T04:41:59.830Z,6.40
2022-12-24T04:42:34.032Z,6.30
2022-12-24T04:43:10.146Z,6.30
2022-12-24T04:43:43.884Z,6.30
2022-12-24T04:44:19.670Z,6.30
2022-12-24T04:44:55.929Z,6.30
2022-12-24T04:45:29.983Z,6.40
2022-12-24T04:46:07.358Z,6.30
2022-12-24T04:46:43.049Z,6.30
2022-12-24T04:47:18.110Z,6.40
2022-12-24T04:47:52.502Z,6.30
2022-12-24T04:48:27.982Z,6.30
2022-12-24T04:49:03.968Z,6.30
2022-12-24T04:49:37.724Z,6.20
2022-12-24T04:50:14.978Z,6.20
2022-12-24T04:50:49.954Z,6.30
2022-12-24T04:51:25.479Z,6.30
2022-12-24T04:52:01.043Z,6.30
2022-12-24T04:52:35.276Z,6.30
2022-12-24T04:53:10.096Z,6.30
2022-12-24T04:53:44.798Z,6.30
2022-12-24T04:54:19.257Z,6.30
2022-12-24T04:54:54.200Z,6.30
2022-12-24T04:55:29.511Z,6.30
2022-12-24T04:56:03.895Z,6.30
2022-12-24T04:56:38.001Z,6.30
2022-12-24T04:57:14.239Z,6.30
2022-12-24T04:57:53.101Z,6.30
2022-12-24T04:58:27.993Z,6.30
2022-12-24T04:59:03.829Z,6.30
2022-12-24T04:59:38.372Z,6.30
2022-12-24T05:00:14.947Z,6.30
2022-12-24T05:00:50.790Z,6.30
2022-12-24T05:01:26.612Z,6.40
2022-12-24T05:02:01.493Z,6.40
2022-12-24T05:02:37.258Z,6.30
2022-12-24T05:03:12.532Z,6.30
2022-12-24T05:03:48.027Z,6.30
2022-12-24T05:04:25.612Z,6.40
2022-12-24T05:04:59.517Z,6.40
2022-12-24T05:05:34.002Z,6.30
2022-12-24T05:06:14.445Z,6.40
2022-12-24T05:06:50.564Z,6.40
2022-12-24T05:07:24.626Z,6.30
2022-12-24T05:07:59.564Z,6.30
2022-12-24T05:08:34.433Z,6.30
2022-12-24T05:09:09.401Z,6.30
2022-12-24T05:09:44.934Z,6.30
2022-12-24T05:10:20.493Z,6.30
2022-12-24T05:10:57.028Z,6.30
2022-12-24T05:11:33.250Z,6.30
2022-12-24T05:12:08.577Z,6.30
2022-12-24T05:12:43.336Z,6.30
2022-12-24T05:13:19.225Z,6.30
2022-12-24T05:13:53.810Z,6.30
2022-12-24T05:14:27.421Z,6.30
2022-12-24T05:15:03.005Z,6.20
2022-12-24T05:15:36.668Z,6.20
2022-12-24T05:16:11.789Z,6.20
2022-12-24T05:16:48.669Z,6.20
2022-12-24T05:17:23.392Z,6.10
2022-12-24T05:17:56.785Z,6.10
2022-12-24T05:18:31.701Z,6.10
2022-12-24T05:19:06.783Z,6.10
2022-12-24T05:19:47.971Z,6.10
2022-12-24T05:20:22.669Z,6.20
2022-12-24T05:20:57.277Z,6.20
2022-12-24T05:21:37.010Z,6.20
2022-12-24T05:22:26.369Z,6.20
2022-12-24T05:23:19.708Z,6.20
2022-12-24T05:24:12.715Z,6.20
2022-12-24T05:25:19.970Z,6.20
2022-12-24T05:26:15.327Z,6.10
2022-12-24T05:26:54.051Z,6.10
2022-12-24T05:27:28.559Z,6.10
2022-12-24T05:28:03.034Z,6.10
2022-12-24T05:28:38.221Z,6.10
2022-12-24T05:29:14.503Z,6.10
2022-12-24T05:29:49.607Z,6.10
2022-12-24T05:30:24.644Z,6.10
2022-12-24T05:31:00.258Z,6.00
2022-12-24T05:31:36.770Z,6.00
2022-12-24T05:32:10.092Z,6.00
2022-12-24T05:32:45.461Z,5.90
2022-12-24T05:33:20.999Z,5.90
2022-12-24T05:33:54.989Z,5.90
2022-12-24T05:34:30.707Z,5.90
2022-12-24T05:35:08.352Z,5.90
2022-12-24T05:35:42.814Z,5.90
2022-12-24T05:36:18.567Z,5.90
2022-12-24T05:36:53.108Z,5.90
2022-12-24T05:37:26.952Z,5.90
2022-12-24T05:38:02.555Z,5.80
2022-12-24T05:38:36.582Z,5.80
2022-12-24T05:39:16.007Z,5.80
2022-12-24T05:39:51.656Z,5.80
2022-12-24T05:40:25.760Z,5.80
2022-12-24T05:41:00.103Z,5.80
2022-12-24T05:41:35.897Z,5.80
2022-12-24T05:42:10.078Z,5.80
2022-12-24T05:42:45.474Z,5.80
2022-12-24T05:43:23.876Z,5.80
2022-12-24T05:43:59.492Z,5.80
2022-12-24T05:44:34.720Z,5.80
2022-12-24T05:45:12.477Z,5.80
2022-12-24T05:45:48.488Z,5.80
2022-12-24T05:46:24.462Z,5.80
2022-12-24T05:46:59.982Z,5.80
2022-12-24T05:47:39.653Z,5.80
2022-12-24T05:48:19.113Z,5.80
2022-12-24T05:48:54.234Z,5.70
2022-12-24T05:49:29.243Z,5.70
2022-12-24T05:50:03.766Z,5.70
2022-12-24T05:50:44.227Z,5.70
2022-12-24T05:51:20.657Z,5.80
2022-12-24T05:51:54.985Z,5.70
2022-12-24T05:52:29.505Z,5.80
2022-12-24T05:53:03.901Z,5.70
2022-12-24T05:53:39.467Z,5.70
2022-12-24T05:54:14.377Z,5.70
2022-12-24T05:54:49.129Z,5.70
2022-12-24T05:55:24.089Z,5.80
2022-12-24T05:56:04.345Z,5.80
2022-12-24T05:56:38.835Z,5.80
2022-12-24T05:57:14.153Z,5.70
2022-12-24T05:57:49.219Z,5.70
2022-12-24T05:58:24.402Z,5.70
2022-12-24T05:59:04.302Z,5.70
2022-12-24T05:59:39.638Z,5.70
2022-12-24T06:00:14.556Z,5.70
2022-12-24T06:00:49.479Z,5.70
2022-12-24T06:01:25.064Z,5.70
2022-12-24T06:02:00.893Z,5.70
2022-12-24T06:02:37.234Z,5.70
2022-12-24T06:03:12.531Z,5.70
2022-12-24T06:03:46.914Z,5.70
2022-12-24T06:04:26.690Z,5.70
2022-12-24T06:05:03.395Z,5.80
2022-12-24T06:05:38.283Z,5.80
2022-12-24T06:06:19.780Z,5.80
2022-12-24T06:06:55.194Z,5.80
2022-12-24T06:07:30.162Z,5.80
2022-12-24T06:08:07.607Z,5.80
2022-12-24T06:08:42.439Z,5.80
2022-12-24T06:09:17.876Z,5.80
2022-12-24T06:09:51.797Z,5.90
2022-12-24T06:10:26.268Z,5.80
2022-12-24T06:11:02.313Z,5.80
2022-12-24T06:11:37.443Z,5.80
2022-12-24T06:12:11.541Z,5.80
2022-12-24T06:12:46.274Z,5.80
2022-12-24T06:13:21.607Z,5.80
2022-12-24T06:13:58.824Z,5.80
2022-12-24T06:14:33.565Z,5.80
2022-12-24T06:15:09.802Z,5.80
2022-12-24T06:15:45.518Z,5.80
2022-12-24T06:16:21.950Z,5.80
2022-12-24T06:16:55.943Z,5.80
2022-12-24T06:17:32.032Z,5.80
2022-12-24T06:18:06.876Z,5.80
2022-12-24T06:18:41.871Z,5.80
2022-12-24T06:19:17.964Z,5.80
2022-12-24T06:19:52.873Z,5.80
2022-12-24T06:20:26.479Z,5.80
2022-12-24T06:21:00.771Z,5.90
2022-12-24T06:21:37.701Z,5.90
2022-12-24T06:22:11.257Z,5.90
2022-12-24T06:22:45.693Z,5.90
2022-12-24T06:23:20.604Z,5.90
2022-12-24T06:23:56.237Z,5.90
2022-12-24T06:24:30.564Z,5.90
2022-12-24T06:25:06.708Z,5.90
2022-12-24T06:25:41.762Z,5.90
2022-12-24T06:26:17.468Z,5.90
2022-12-24T06:26:53.587Z,5.90
2022-12-24T06:27:27.459Z,5.90
2022-12-24T06:28:02.200Z,5.90
2022-12-24T06:28:39.988Z,5.90
2022-12-24T06:29:14.063Z,5.90
2022-12-24T06:29:49.237Z,5.90
2022-12-24T06:30:24.783Z,5.90
2022-12-24T06:31:03.052Z,5.90
2022-12-24T06:31:39.344Z,5.90
2022-12-24T06:32:13.618Z,6.00
2022-12-24T06:32:47.659Z,6.00
2022-12-24T06:33:24.857Z,6.00
2022-12-24T06:33:59.003Z,6.00
2022-12-24T06:34:34.973Z,6.00
2022-12-24T06:35:10.493Z,6.00
2022-12-24T06:35:46.555Z,6.00
2022-12-24T06:36:24.603Z,6.00
2022-12-24T06:37:00.247Z,6.00
2022-12-24T06:37:38.030Z,6.10
2022-12-24T06:38:14.285Z,6.10
2022-12-24T06:38:49.946Z,6.10
2022-12-24T06:39:25.145Z,6.10
2022-12-24T06:40:01.250Z,6.10
2022-12-24T06:40:36.638Z,6.10
2022-12-24T06:41:10.308Z,6.10
2022-12-24T06:41:44.133Z,6.20
2022-12-24T06:42:18.294Z,6.10
2022-12-24T06:42:52.682Z,6.10
2022-12-24T06:43:28.472Z,6.20
2022-12-24T06:44:03.565Z,6.10
2022-12-24T06:44:38.358Z,6.10
2022-12-24T06:45:12.950Z,6.10
2022-12-24T06:45:48.666Z,6.00
2022-12-24T06:46:23.843Z,6.00
2022-12-24T06:46:58.826Z,6.00
2022-12-24T06:47:35.024Z,6.00
2022-12-24T06:48:10.147Z,6.00
2022-12-24T06:48:44.407Z,5.90
2022-12-24T06:49:20.608Z,5.90
2022-12-24T06:49:55.262Z,5.90
2022-12-24T06:50:29.982Z,5.90
2022-12-24T06:51:05.831Z,5.90
2022-12-24T06:51:40.678Z,6.00
2022-12-24T06:52:16.717Z,5.90
2022-12-24T06:52:53.196Z,5.90
2022-12-24T06:53:26.512Z,5.90
2022-12-24T06:54:01.306Z,5.90
2022-12-24T06:54:37.203Z,5.90
2022-12-24T06:55:11.833Z,5.90
2022-12-24T06:55:47.583Z,5.90
2022-12-24T06:56:23.617Z,5.90
2022-12-24T06:56:58.051Z,5.90
2022-12-24T06:57:33.060Z,5.90
2022-12-24T06:58:09.452Z,6.00
2022-12-24T06:58:44.839Z,6.00
2022-12-24T06:59:21.964Z,6.00
2022-12-24T06:59:56.922Z,6.00
2022-12-24T07:00:31.115Z,6.00
2022-12-24T07:01:07.954Z,6.00
2022-12-24T07:01:43.072Z,5.90
2022-12-24T07:02:19.729Z,5.90
2022-12-24T07:02:54.905Z,5.90
2022-12-24T07:03:29.749Z,5.90
2022-12-24T07:04:06.452Z,5.90
2022-12-24T07:04:41.637Z,5.90
2022-12-24T07:05:16.760Z,5.90
2022-12-24T07:05:52.255Z,5.90
2022-12-24T07:06:28.259Z,5.90
2022-12-24T07:07:02.657Z,5.90
2022-12-24T07:07:40.608Z,5.90
2022-12-24T07:08:14.705Z,5.90
2022-12-24T07:08:51.158Z,5.90
2022-12-24T07:09:26.641Z,5.90
2022-12-24T07:10:00.997Z,5.90
2022-12-24T07:10:36.504Z,5.90
2022-12-24T07:11:11.067Z,5.80
2022-12-24T07:11:46.981Z,5.90
2022-12-24T07:12:22.004Z,5.90
2022-12-24T07:12:56.315Z,5.90
2022-12-24T07:13:32.398Z,5.90
2022-12-24T07:14:06.797Z,5.90
2022-12-24T07:14:41.811Z,5.90
2022-12-24T07:15:20.769Z,5.90
2022-12-24T07:15:59.247Z,5.90
2022-12-24T07:16:34.892Z,5.90
2022-12-24T07:17:09.849Z,5.90
2022-12-24T07:17:45.052Z,5.90
2022-12-24T07:18:22.791Z,5.90
2022-12-24T07:18:56.815Z,5.90
2022-12-24T07:19:31.466Z,5.90
2022-12-24T07:20:11.025Z,5.90
2022-12-24T07:20:44.898Z,6.00
2022-12-24T07:21:18.893Z,5.90
2022-12-24T07:21:55.212Z,6.00
2022-12-24T07:22:29.651Z,6.00
2022-12-24T07:23:05.880Z,6.00
2022-12-24T07:23:42.010Z,6.00
2022-12-24T07:24:17.522Z,6.00
2022-12-24T07:24:52.897Z,6.10
2022-12-24T07:25:27.049Z,6.10
2022-12-24T07:26:03.838Z,6.00
2022-12-24T07:26:38.662Z,6.00
2022-12-24T07:27:12.693Z,6.00
2022-12-24T07:27:48.359Z,6.00
2022-12-24T07:28:27.749Z,6.10
2022-12-24T07:29:03.593Z,6.10
2022-12-24T07:29:41.386Z,6.10
2022-12-24T07:30:16.699Z,6.10
2022-12-24T07:30:51.713Z,6.10
2022-12-24T07:31:28.147Z,6.10
2022-12-24T07:32:02.879Z,6.10
2022-12-24T07:32:36.907Z,6.10
2022-12-24T07:33:12.528Z,6.10
2022-12-24T07:33:47.112Z,6.10
2022-12-24T07:34:21.550Z,6.10
2022-12-24T07:34:57.176Z,6.10
2022-12-24T07:35:32.352Z,6.10
2022-12-24T07:36:09.784Z,6.10
2022-12-24T07:36:44.176Z,6.10
2022-12-24T07:37:19.019Z,6.10
2022-12-24T07:37:54.841Z,6.10
2022-12-24T07:38:30.791Z,6.10
2022-12-24T07:39:06.453Z,6.10
2022-12-24T07:39:40.973Z,6.10
2022-12-24T07:40:16.879Z,6.20
2022-12-24T07:40:52.140Z,6.20
2022-12-24T07:41:27.342Z,6.20
2022-12-24T07:42:02.477Z,6.20
2022-12-24T07:42:38.938Z,6.20
2022-12-24T07:43:14.434Z,6.20
2022-12-24T07:43:49.568Z,6.20
2022-12-24T07:44:25.724Z,6.30
2022-12-24T07:45:00.272Z,6.20
2022-12-24T07:45:39.373Z,6.20
2022-12-24T07:46:14.830Z,6.30
2022-12-24T07:46:49.579Z,6.30
2022-12-24T07:47:24.679Z,6.30
2022-12-24T07:48:00.421Z,6.30
2022-12-24T07:48:35.911Z,6.30
2022-12-24T07:49:11.098Z,6.30
2022-12-24T07:49:46.852Z,6.30
2022-12-24T07:50:22.042Z,6.30
2022-12-24T07:50:57.499Z,6.30
2022-12-24T07:51:32.822Z,6.30
2022-12-24T07:52:06.719Z,6.30
2022-12-24T07:52:42.461Z,6.30
2022-12-24T07:53:18.308Z,6.30
2022-12-24T07:53:54.712Z,6.40
2022-12-24T07:54:30.425Z,6.40
2022-12-24T07:55:05.052Z,6.40
2022-12-24T07:55:40.328Z,6.40
2022-12-24T07:56:16.476Z,6.40
2022-12-24T07:56:49.966Z,6.40
2022-12-24T07:57:23.405Z,6.40
2022-12-24T07:57:57.936Z,6.40
2022-12-24T07:58:33.809Z,6.40
2022-12-24T07:59:09.982Z,6.40
2022-12-24T07:59:44.604Z,6.40
2022-12-24T08:00:21.306Z,6.40
2022-12-24T08:01:00.233Z,6.40
2022-12-24T08:01:35.063Z,6.30
2022-12-24T08:02:17.900Z,6.30
2022-12-24T08:02:54.832Z,6.40
2022-12-24T08:03:30.295Z,6.40
2022-12-24T08:04:06.813Z,6.40
2022-12-24T08:04:43.013Z,6.40
2022-12-24T08:05:18.738Z,6.40
2022-12-24T08:05:53.521Z,6.40
2022-12-24T08:06:29.819Z,6.40
2022-12-24T08:07:04.216Z,6.40
2022-12-24T08:07:38.174Z,6.40
2022-12-24T08:08:13.242Z,6.40
2022-12-24T08:08:47.781Z,6.40
2022-12-24T08:09:50.438Z,6.40
2022-12-24T08:10:23.278Z,6.50
2022-12-24T08:11:01.284Z,6.50